sensor_id;sensor_type;location;lat;lon;timestamp;pressure;altitude;pressure_sealevel;temperature;humidity
60437;BME280;46289;51.992;4.498;2023-07-22T00:01:17;101525.34;;;14.85;94.78
60437;BME280;46289;51.992;4.498;2023-07-22T00:03:22;101527.81;;;14.88;93.37
60437;BME280;46289;51.992;4.498;2023-07-22T00:05:28;101522.69;;;14.85;93.27
60437;BME280;46289;51.992;4.498;2023-07-22T00:07:33;101530.75;;;14.82;94.33
60437;BME280;46289;51.992;4.498;2023-07-22T00:09:38;101526.69;;;14.75;93.14
60437;BME280;46289;51.992;4.498;2023-07-22T00:11:44;101524.97;;;14.74;93.96
60437;BME280;46289;51.992;4.498;2023-07-22T00:13:49;101525.41;;;14.65;94.85
60437;BME280;46289;51.992;4.498;2023-07-22T00:15:56;101521.31;;;14.58;94.21
60437;BME280;46289;51.992;4.498;2023-07-22T00:18:01;101514.38;;;14.55;94.96
60437;BME280;46289;51.992;4.498;2023-07-22T00:20:08;101521.41;;;14.56;93.92
60437;BME280;46289;51.992;4.498;2023-07-22T00:22:16;101511.84;;;14.52;93.95
60437;BME280;46289;51.992;4.498;2023-07-22T00:24:22;101512.84;;;14.49;94.57
60437;BME280;46289;51.992;4.498;2023-07-22T00:26:30;101509.34;;;14.49;94.26
60437;BME280;46289;51.992;4.498;2023-07-22T00:28:35;101512.06;;;14.47;93.99
60437;BME280;46289;51.992;4.498;2023-07-22T00:30:41;101514.06;;;14.42;93.57
60437;BME280;46289;51.992;4.498;2023-07-22T00:32:48;101511.75;;;14.35;94.15
60437;BME280;46289;51.992;4.498;2023-07-22T00:34:53;101512.00;;;14.30;94.45
60437;BME280;46289;51.992;4.498;2023-07-22T00:36:58;101507.69;;;14.27;94.73
60437;BME280;46289;51.992;4.498;2023-07-22T00:39:03;101506.06;;;14.25;94.37
60437;BME280;46289;51.992;4.498;2023-07-22T00:41:09;101515.53;;;14.29;94.24
60437;BME280;46289;51.992;4.498;2023-07-22T00:43:14;101504.25;;;14.25;94.39
60437;BME280;46289;51.992;4.498;2023-07-22T00:45:20;101508.25;;;14.15;94.28
60437;BME280;46289;51.992;4.498;2023-07-22T00:47:25;101506.31;;;14.19;94.17
60437;BME280;46289;51.992;4.498;2023-07-22T00:49:33;101507.31;;;14.16;93.93
60437;BME280;46289;51.992;4.498;2023-07-22T00:51:39;101504.59;;;14.18;94.91
60437;BME280;46289;51.992;4.498;2023-07-22T00:53:44;101503.75;;;14.17;93.92
60437;BME280;46289;51.992;4.498;2023-07-22T00:55:49;101500.13;;;14.20;94.00
60437;BME280;46289;51.992;4.498;2023-07-22T00:57:54;101495.72;;;14.19;93.41
60437;BME280;46289;51.992;4.498;2023-07-22T01:00:00;101492.19;;;14.20;93.97
60437;BME280;46289;51.992;4.498;2023-07-22T01:02:08;101498.31;;;14.20;93.56
60437;BME280;46289;51.992;4.498;2023-07-22T01:04:14;101492.31;;;14.17;93.08
60437;BME280;46289;51.992;4.498;2023-07-22T01:06:26;101496.53;;;14.21;93.37
60437;BME280;46289;51.992;4.498;2023-07-22T01:08:30;101491.34;;;14.19;92.25
60437;BME280;46289;51.992;4.498;2023-07-22T01:10:37;101483.50;;;14.16;92.97
60437;BME280;46289;51.992;4.498;2023-07-22T01:12:44;101487.94;;;14.16;92.55
60437;BME280;46289;51.992;4.498;2023-07-22T01:14:49;101487.09;;;14.15;92.80
60437;BME280;46289;51.992;4.498;2023-07-22T01:16:54;101482.66;;;14.16;93.25
60437;BME280;46289;51.992;4.498;2023-07-22T01:19:01;101486.38;;;14.12;92.69
60437;BME280;46289;51.992;4.498;2023-07-22T01:21:09;101486.25;;;14.15;93.00
60437;BME280;46289;51.992;4.498;2023-07-22T01:23:17;101479.16;;;14.15;92.83
60437;BME280;46289;51.992;4.498;2023-07-22T01:25:23;101476.47;;;14.17;92.21
60437;BME280;46289;51.992;4.498;2023-07-22T01:27:31;101479.88;;;14.19;92.82
60437;BME280;46289;51.992;4.498;2023-07-22T01:29:37;101480.88;;;14.16;92.87
60437;BME280;46289;51.992;4.498;2023-07-22T01:31:47;101469.66;;;14.11;92.55
60437;BME280;46289;51.992;4.498;2023-07-22T01:33:52;101475.81;;;14.12;92.25
60437;BME280;46289;51.992;4.498;2023-07-22T01:35:58;101469.72;;;14.10;92.05
60437;BME280;46289;51.992;4.498;2023-07-22T01:38:03;101461.81;;;14.10;92.42
60437;BME280;46289;51.992;4.498;2023-07-22T01:40:13;101473.38;;;14.07;92.14
60437;BME280;46289;51.992;4.498;2023-07-22T01:42:17;101475.03;;;14.10;92.63
60437;BME280;46289;51.992;4.498;2023-07-22T01:44:22;101460.09;;;14.09;92.42
60437;BME280;46289;51.992;4.498;2023-07-22T01:46:29;101469.66;;;14.11;92.59
60437;BME280;46289;51.992;4.498;2023-07-22T01:48:34;101470.53;;;14.12;92.73
60437;BME280;46289;51.992;4.498;2023-07-22T01:50:39;101467.09;;;14.10;92.98
60437;BME280;46289;51.992;4.498;2023-07-22T01:52:44;101460.34;;;14.02;92.18
60437;BME280;46289;51.992;4.498;2023-07-22T01:54:50;101467.38;;;14.03;92.15
60437;BME280;46289;51.992;4.498;2023-07-22T01:56:58;101456.06;;;14.00;92.34
60437;BME280;46289;51.992;4.498;2023-07-22T01:59:03;101456.16;;;13.98;92.19
60437;BME280;46289;51.992;4.498;2023-07-22T02:01:07;101458.00;;;13.96;92.07
60437;BME280;46289;51.992;4.498;2023-07-22T02:03:17;101462.50;;;13.94;92.27
60437;BME280;46289;51.992;4.498;2023-07-22T02:05:22;101455.56;;;13.92;92.12
60437;BME280;46289;51.992;4.498;2023-07-22T02:07:29;101444.94;;;13.93;92.78
60437;BME280;46289;51.992;4.498;2023-07-22T02:09:35;101453.72;;;13.94;93.39
60437;BME280;46289;51.992;4.498;2023-07-22T02:11:41;101448.47;;;13.92;92.98
60437;BME280;46289;51.992;4.498;2023-07-22T02:13:49;101443.28;;;13.91;92.73
60437;BME280;46289;51.992;4.498;2023-07-22T02:15:54;101447.81;;;13.87;93.12
60437;BME280;46289;51.992;4.498;2023-07-22T02:17:56;101452.25;;;13.87;92.48
60437;BME280;46289;51.992;4.498;2023-07-22T02:20:01;101451.47;;;13.84;92.96
60437;BME280;46289;51.992;4.498;2023-07-22T02:22:07;101450.56;;;13.86;92.70
60437;BME280;46289;51.992;4.498;2023-07-22T02:24:14;101447.91;;;13.86;94.07
60437;BME280;46289;51.992;4.498;2023-07-22T02:26:20;101442.81;;;13.81;93.04
60437;BME280;46289;51.992;4.498;2023-07-22T02:28:26;101440.31;;;13.78;93.19
60437;BME280;46289;51.992;4.498;2023-07-22T02:30:34;101448.44;;;13.73;92.70
60437;BME280;46289;51.992;4.498;2023-07-22T02:32:40;101446.78;;;13.71;92.85
60437;BME280;46289;51.992;4.498;2023-07-22T02:34:45;101433.59;;;13.71;93.25
60437;BME280;46289;51.992;4.498;2023-07-22T02:36:50;101436.56;;;13.63;92.15
60437;BME280;46289;51.992;4.498;2023-07-22T02:38:55;101434.00;;;13.61;92.62
60437;BME280;46289;51.992;4.498;2023-07-22T02:41:02;101433.00;;;13.64;93.24
60437;BME280;46289;51.992;4.498;2023-07-22T02:43:09;101435.66;;;13.64;93.18
60437;BME280;46289;51.992;4.498;2023-07-22T02:45:14;101427.50;;;13.69;93.68
60437;BME280;46289;51.992;4.498;2023-07-22T02:47:25;101431.09;;;13.68;93.52
60437;BME280;46289;51.992;4.498;2023-07-22T02:49:30;101429.44;;;13.65;93.63
60437;BME280;46289;51.992;4.498;2023-07-22T02:51:37;101433.88;;;13.65;93.85
60437;BME280;46289;51.992;4.498;2023-07-22T02:53:45;101428.59;;;13.65;93.53
60437;BME280;46289;51.992;4.498;2023-07-22T02:55:50;101426.84;;;13.64;93.44
60437;BME280;46289;51.992;4.498;2023-07-22T02:57:55;101428.50;;;13.66;93.22
60437;BME280;46289;51.992;4.498;2023-07-22T03:00:00;101425.94;;;13.65;92.73
60437;BME280;46289;51.992;4.498;2023-07-22T03:02:07;101424.09;;;13.67;93.06
60437;BME280;46289;51.992;4.498;2023-07-22T03:04:18;101425.81;;;13.68;93.33
60437;BME280;46289;51.992;4.498;2023-07-22T03:06:25;101427.41;;;13.72;92.78
60437;BME280;46289;51.992;4.498;2023-07-22T03:08:31;101421.22;;;13.71;92.94
60437;BME280;46289;51.992;4.498;2023-07-22T03:10:37;101423.03;;;13.71;92.39
60437;BME280;46289;51.992;4.498;2023-07-22T03:12:44;101423.81;;;13.73;92.33
60437;BME280;46289;51.992;4.498;2023-07-22T03:14:49;101431.59;;;13.76;93.53
60437;BME280;46289;51.992;4.498;2023-07-22T03:16:54;101431.75;;;13.73;92.48
60437;BME280;46289;51.992;4.498;2023-07-22T03:19:01;101430.81;;;13.74;92.34
60437;BME280;46289;51.992;4.498;2023-07-22T03:21:10;101430.75;;;13.75;91.78
60437;BME280;46289;51.992;4.498;2023-07-22T03:23:12;101433.31;;;13.77;92.11
60437;BME280;46289;51.992;4.498;2023-07-22T03:25:19;101436.03;;;13.75;92.33
60437;BME280;46289;51.992;4.498;2023-07-22T03:27:26;101433.31;;;13.77;92.57
60437;BME280;46289;51.992;4.498;2023-07-22T03:29:31;101431.75;;;13.73;92.19
60437;BME280;46289;51.992;4.498;2023-07-22T03:31:37;101436.22;;;13.71;91.62
60437;BME280;46289;51.992;4.498;2023-07-22T03:33:43;101446.88;;;13.69;92.92
60437;BME280;46289;51.992;4.498;2023-07-22T03:35:48;101444.34;;;13.66;92.50
60437;BME280;46289;51.992;4.498;2023-07-22T03:37:56;101446.00;;;13.69;92.51
60437;BME280;46289;51.992;4.498;2023-07-22T03:40:01;101453.19;;;13.65;92.61
60437;BME280;46289;51.992;4.498;2023-07-22T03:42:09;101446.22;;;13.64;93.04
60437;BME280;46289;51.992;4.498;2023-07-22T03:44:14;101447.88;;;13.67;93.74
60437;BME280;46289;51.992;4.498;2023-07-22T03:46:19;101443.44;;;13.67;93.67
60437;BME280;46289;51.992;4.498;2023-07-22T03:48:25;101444.25;;;13.69;94.04
60437;BME280;46289;51.992;4.498;2023-07-22T03:50:30;101444.09;;;13.72;93.59
60437;BME280;46289;51.992;4.498;2023-07-22T03:52:35;101442.31;;;13.73;93.22
60437;BME280;46289;51.992;4.498;2023-07-22T03:54:45;101452.59;;;13.79;93.82
60437;BME280;46289;51.992;4.498;2023-07-22T03:56:50;101444.63;;;13.80;93.87
60437;BME280;46289;51.992;4.498;2023-07-22T03:58:55;101447.16;;;13.82;93.56
60437;BME280;46289;51.992;4.498;2023-07-22T04:01:00;101452.19;;;13.88;94.67
60437;BME280;46289;51.992;4.498;2023-07-22T04:03:08;101449.34;;;13.93;94.86
60437;BME280;46289;51.992;4.498;2023-07-22T04:05:14;101439.56;;;13.95;94.74
60437;BME280;46289;51.992;4.498;2023-07-22T04:07:19;101433.28;;;13.97;94.76
60437;BME280;46289;51.992;4.498;2023-07-22T04:09:27;101437.44;;;14.03;94.62
60437;BME280;46289;51.992;4.498;2023-07-22T04:11:35;101430.22;;;14.07;95.35
60437;BME280;46289;51.992;4.498;2023-07-22T04:13:40;101429.16;;;14.11;95.94
60437;BME280;46289;51.992;4.498;2023-07-22T04:15:45;101431.38;;;14.20;95.93
60437;BME280;46289;51.992;4.498;2023-07-22T04:17:50;101431.09;;;14.26;96.92
60437;BME280;46289;51.992;4.498;2023-07-22T04:19:56;101428.28;;;14.29;96.96
60437;BME280;46289;51.992;4.498;2023-07-22T04:22:01;101430.53;;;14.38;97.45
60437;BME280;46289;51.992;4.498;2023-07-22T04:24:07;101421.59;;;14.41;96.95
60437;BME280;46289;51.992;4.498;2023-07-22T04:26:12;101423.66;;;14.53;97.85
60437;BME280;46289;51.992;4.498;2023-07-22T04:28:20;101428.84;;;14.56;97.90
60437;BME280;46289;51.992;4.498;2023-07-22T04:30:22;101428.53;;;14.62;97.98
60437;BME280;46289;51.992;4.498;2023-07-22T04:32:28;101422.25;;;14.65;98.83
60437;BME280;46289;51.992;4.498;2023-07-22T04:34:33;101428.22;;;14.68;98.51
60437;BME280;46289;51.992;4.498;2023-07-22T04:36:38;101434.16;;;14.74;98.62
60437;BME280;46289;51.992;4.498;2023-07-22T04:38:43;101442.81;;;14.77;98.82
60437;BME280;46289;51.992;4.498;2023-07-22T04:40:49;101436.28;;;14.84;98.75
60437;BME280;46289;51.992;4.498;2023-07-22T04:42:54;101433.47;;;14.87;98.50
60437;BME280;46289;51.992;4.498;2023-07-22T04:45:02;101430.63;;;14.92;98.69
60437;BME280;46289;51.992;4.498;2023-07-22T04:47:08;101434.91;;;14.95;99.06
60437;BME280;46289;51.992;4.498;2023-07-22T04:49:14;101432.81;;;15.01;98.68
60437;BME280;46289;51.992;4.498;2023-07-22T04:51:20;101429.28;;;15.01;98.82
60437;BME280;46289;51.992;4.498;2023-07-22T04:53:25;101436.94;;;15.07;98.29
60437;BME280;46289;51.992;4.498;2023-07-22T04:55:30;101432.28;;;15.12;98.64
60437;BME280;46289;51.992;4.498;2023-07-22T04:57:38;101438.66;;;15.08;98.83
60437;BME280;46289;51.992;4.498;2023-07-22T04:59:45;101434.63;;;15.18;98.42
60437;BME280;46289;51.992;4.498;2023-07-22T05:01:53;101438.28;;;15.15;98.95
60437;BME280;46289;51.992;4.498;2023-07-22T05:03:58;101433.53;;;15.22;98.36
60437;BME280;46289;51.992;4.498;2023-07-22T05:06:03;101429.16;;;15.21;98.14
60437;BME280;46289;51.992;4.498;2023-07-22T05:08:10;101426.06;;;15.30;98.07
60437;BME280;46289;51.992;4.498;2023-07-22T05:10:18;101430.63;;;15.27;98.30
60437;BME280;46289;51.992;4.498;2023-07-22T05:12:21;101440.94;;;15.33;98.13
60437;BME280;46289;51.992;4.498;2023-07-22T05:14:27;101432.91;;;15.34;97.88
60437;BME280;46289;51.992;4.498;2023-07-22T05:16:32;101429.50;;;15.32;98.41
60437;BME280;46289;51.992;4.498;2023-07-22T05:18:40;101438.03;;;15.37;98.11
60437;BME280;46289;51.992;4.498;2023-07-22T05:20:44;101425.56;;;15.40;98.01
60437;BME280;46289;51.992;4.498;2023-07-22T05:22:50;101424.56;;;15.42;98.12
60437;BME280;46289;51.992;4.498;2023-07-22T05:24:55;101429.84;;;15.42;98.10
60437;BME280;46289;51.992;4.498;2023-07-22T05:27:00;101425.28;;;15.46;97.96
60437;BME280;46289;51.992;4.498;2023-07-22T05:29:10;101425.63;;;15.55;97.76
60437;BME280;46289;51.992;4.498;2023-07-22T05:31:16;101426.50;;;15.56;97.52
60437;BME280;46289;51.992;4.498;2023-07-22T05:33:21;101420.97;;;15.61;97.53
60437;BME280;46289;51.992;4.498;2023-07-22T05:35:29;101419.69;;;15.69;97.23
60437;BME280;46289;51.992;4.498;2023-07-22T05:37:37;101422.91;;;15.74;97.16
60437;BME280;46289;51.992;4.498;2023-07-22T05:39:45;101420.13;;;15.77;96.92
60437;BME280;46289;51.992;4.498;2023-07-22T05:41:52;101416.91;;;15.88;96.74
60437;BME280;46289;51.992;4.498;2023-07-22T05:43:59;101418.25;;;15.95;96.29
60437;BME280;46289;51.992;4.498;2023-07-22T05:46:04;101414.41;;;15.85;95.63
60437;BME280;46289;51.992;4.498;2023-07-22T05:48:10;101413.31;;;16.05;95.82
60437;BME280;46289;51.992;4.498;2023-07-22T05:50:14;101418.22;;;16.13;95.56
60437;BME280;46289;51.992;4.498;2023-07-22T05:52:22;101419.06;;;16.13;95.47
60437;BME280;46289;51.992;4.498;2023-07-22T05:54:25;101419.50;;;16.21;95.43
60437;BME280;46289;51.992;4.498;2023-07-22T05:56:30;101422.44;;;16.33;94.39
60437;BME280;46289;51.992;4.498;2023-07-22T05:58:37;101414.19;;;16.37;94.16
60437;BME280;46289;51.992;4.498;2023-07-22T06:00:44;101427.13;;;16.28;94.69
60437;BME280;46289;51.992;4.498;2023-07-22T06:02:49;101409.84;;;16.36;94.21
60437;BME280;46289;51.992;4.498;2023-07-22T06:04:54;101414.47;;;16.33;94.76
60437;BME280;46289;51.992;4.498;2023-07-22T06:07:01;101426.19;;;16.29;94.59
60437;BME280;46289;51.992;4.498;2023-07-22T06:09:08;101420.53;;;16.35;94.39
60437;BME280;46289;51.992;4.498;2023-07-22T06:11:13;101416.72;;;16.40;93.95
60437;BME280;46289;51.992;4.498;2023-07-22T06:13:19;101418.47;;;16.40;93.83
60437;BME280;46289;51.992;4.498;2023-07-22T06:15:25;101427.38;;;16.39;94.27
60437;BME280;46289;51.992;4.498;2023-07-22T06:17:30;101416.72;;;16.40;94.48
60437;BME280;46289;51.992;4.498;2023-07-22T06:19:37;101406.25;;;16.37;93.83
60437;BME280;46289;51.992;4.498;2023-07-22T06:21:45;101411.31;;;16.42;94.48
60437;BME280;46289;51.992;4.498;2023-07-22T06:23:49;101413.78;;;16.61;93.71
60437;BME280;46289;51.992;4.498;2023-07-22T06:25:58;101417.72;;;16.70;93.43
60437;BME280;46289;51.992;4.498;2023-07-22T06:28:04;101415.50;;;16.78;92.99
60437;BME280;46289;51.992;4.498;2023-07-22T06:30:10;101410.34;;;16.91;92.50
60437;BME280;46289;51.992;4.498;2023-07-22T06:32:17;101405.03;;;16.91;92.11
60437;BME280;46289;51.992;4.498;2023-07-22T06:34:19;101405.50;;;16.83;92.21
60437;BME280;46289;51.992;4.498;2023-07-22T06:36:27;101408.41;;;16.78;92.21
60437;BME280;46289;51.992;4.498;2023-07-22T06:38:33;101409.63;;;17.03;91.53
60437;BME280;46289;51.992;4.498;2023-07-22T06:40:38;101407.75;;;17.19;91.35
60437;BME280;46289;51.992;4.498;2023-07-22T06:42:46;101413.72;;;17.08;90.60
60437;BME280;46289;51.992;4.498;2023-07-22T06:44:48;101405.44;;;17.29;90.84
60437;BME280;46289;51.992;4.498;2023-07-22T06:46:53;101401.28;;;17.39;90.21
60437;BME280;46289;51.992;4.498;2023-07-22T06:48:59;101402.59;;;17.32;89.77
60437;BME280;46289;51.992;4.498;2023-07-22T06:51:04;101396.94;;;17.38;89.97
60437;BME280;46289;51.992;4.498;2023-07-22T06:53:10;101396.03;;;17.38;89.72
60437;BME280;46289;51.992;4.498;2023-07-22T06:55:16;101400.31;;;17.40;89.52
60437;BME280;46289;51.992;4.498;2023-07-22T06:57:22;101403.75;;;17.42;89.79
60437;BME280;46289;51.992;4.498;2023-07-22T06:59:31;101403.75;;;17.42;90.19
60437;BME280;46289;51.992;4.498;2023-07-22T07:01:39;101398.47;;;17.57;90.13
60437;BME280;46289;51.992;4.498;2023-07-22T07:03:44;101405.09;;;17.49;89.02
60437;BME280;46289;51.992;4.498;2023-07-22T07:05:53;101409.38;;;17.52;89.71
60437;BME280;46289;51.992;4.498;2023-07-22T07:07:58;101413.25;;;17.61;88.48
60437;BME280;46289;51.992;4.498;2023-07-22T07:10:03;101413.25;;;17.61;88.23
60437;BME280;46289;51.992;4.498;2023-07-22T07:12:09;101418.97;;;17.69;88.04
60437;BME280;46289;51.992;4.498;2023-07-22T07:14:14;101418.38;;;17.64;87.90
60437;BME280;46289;51.992;4.498;2023-07-22T07:16:23;101417.19;;;17.69;88.82
60437;BME280;46289;51.992;4.498;2023-07-22T07:18:31;101410.97;;;17.69;87.84
60437;BME280;46289;51.992;4.498;2023-07-22T07:20:36;101413.09;;;17.78;87.90
60437;BME280;46289;51.992;4.498;2023-07-22T07:22:45;101414.63;;;17.82;87.81
60437;BME280;46289;51.992;4.498;2023-07-22T07:24:50;101413.19;;;17.76;87.27
60437;BME280;46289;51.992;4.498;2023-07-22T07:26:55;101416.50;;;17.66;87.25
60437;BME280;46289;51.992;4.498;2023-07-22T07:28:57;101409.28;;;17.68;87.42
60437;BME280;46289;51.992;4.498;2023-07-22T07:31:02;101405.31;;;17.75;87.68
60437;BME280;46289;51.992;4.498;2023-07-22T07:33:10;101410.25;;;17.67;87.29
60437;BME280;46289;51.992;4.498;2023-07-22T07:35:16;101400.47;;;17.67;87.28
60437;BME280;46289;51.992;4.498;2023-07-22T07:37:22;101408.72;;;17.63;87.16
60437;BME280;46289;51.992;4.498;2023-07-22T07:39:30;101408.63;;;17.64;86.96
60437;BME280;46289;51.992;4.498;2023-07-22T07:41:35;101407.41;;;17.84;87.02
60437;BME280;46289;51.992;4.498;2023-07-22T07:43:43;101405.91;;;17.94;86.01
60437;BME280;46289;51.992;4.498;2023-07-22T07:45:49;101399.91;;;18.19;85.66
60437;BME280;46289;51.992;4.498;2023-07-22T07:47:54;101393.34;;;18.25;83.88
60437;BME280;46289;51.992;4.498;2023-07-22T07:50:08;101401.69;;;18.33;84.01
60437;BME280;46289;51.992;4.498;2023-07-22T07:52:13;101394.75;;;18.58;83.01
60437;BME280;46289;51.992;4.498;2023-07-22T07:54:18;101396.25;;;18.76;81.32
60437;BME280;46289;51.992;4.498;2023-07-22T07:56:23;101397.84;;;18.79;80.00
60437;BME280;46289;51.992;4.498;2023-07-22T07:58:30;101397.44;;;18.85;78.41
60437;BME280;46289;51.992;4.498;2023-07-22T08:00:32;101396.31;;;19.02;78.50
60437;BME280;46289;51.992;4.498;2023-07-22T08:02:38;101398.28;;;19.25;77.43
60437;BME280;46289;51.992;4.498;2023-07-22T08:04:43;101402.31;;;19.18;76.57
60437;BME280;46289;51.992;4.498;2023-07-22T08:06:51;101396.22;;;19.16;76.38
60437;BME280;46289;51.992;4.498;2023-07-22T08:08:56;101394.06;;;19.48;74.46
60437;BME280;46289;51.992;4.498;2023-07-22T08:11:02;101379.22;;;19.57;73.03
60437;BME280;46289;51.992;4.498;2023-07-22T08:13:10;101382.50;;;19.99;72.91
60437;BME280;46289;51.992;4.498;2023-07-22T08:15:16;101396.41;;;20.28;70.70
60437;BME280;46289;51.992;4.498;2023-07-22T08:17:21;101378.91;;;20.24;70.08
60437;BME280;46289;51.992;4.498;2023-07-22T08:19:23;101382.59;;;20.10;69.58
60437;BME280;46289;51.992;4.498;2023-07-22T08:21:31;101382.84;;;19.82;70.04
60437;BME280;46289;51.992;4.498;2023-07-22T08:23:37;101384.34;;;19.86;70.17
60437;BME280;46289;51.992;4.498;2023-07-22T08:25:43;101394.19;;;19.72;68.80
60437;BME280;46289;51.992;4.498;2023-07-22T08:27:48;101398.22;;;19.91;68.63
60437;BME280;46289;51.992;4.498;2023-07-22T08:29:54;101389.53;;;20.00;68.88
60437;BME280;46289;51.992;4.498;2023-07-22T08:31:59;101388.16;;;20.07;68.24
60437;BME280;46289;51.992;4.498;2023-07-22T08:34:05;101394.50;;;19.81;68.68
60437;BME280;46289;51.992;4.498;2023-07-22T08:36:10;101388.78;;;20.11;68.35
60437;BME280;46289;51.992;4.498;2023-07-22T08:38:16;101387.34;;;20.31;67.17
60437;BME280;46289;51.992;4.498;2023-07-22T08:40:25;101388.88;;;20.83;63.95
60437;BME280;46289;51.992;4.498;2023-07-22T08:42:32;101382.72;;;20.94;64.11
60437;BME280;46289;51.992;4.498;2023-07-22T08:44:41;101388.06;;;20.94;63.74
60437;BME280;46289;51.992;4.498;2023-07-22T08:46:49;101379.84;;;20.73;62.98
60437;BME280;46289;51.992;4.498;2023-07-22T08:49:01;101379.63;;;20.39;62.32
60437;BME280;46289;51.992;4.498;2023-07-22T08:51:10;101387.91;;;20.60;62.54
60437;BME280;46289;51.992;4.498;2023-07-22T08:53:17;101389.84;;;20.45;62.07
60437;BME280;46289;51.992;4.498;2023-07-22T08:55:26;101378.50;;;20.30;64.17
60437;BME280;46289;51.992;4.498;2023-07-22T08:57:32;101379.38;;;20.79;63.15
60437;BME280;46289;51.992;4.498;2023-07-22T08:59:41;101376.47;;;21.17;62.56
60437;BME280;46289;51.992;4.498;2023-07-22T09:01:48;101382.78;;;20.81;62.14
60437;BME280;46289;51.992;4.498;2023-07-22T09:03:54;101383.44;;;20.72;61.34
60437;BME280;46289;51.992;4.498;2023-07-22T09:06:00;101384.94;;;20.76;62.41
60437;BME280;46289;51.992;4.498;2023-07-22T09:08:08;101385.88;;;20.51;62.43
60437;BME280;46289;51.992;4.498;2023-07-22T09:10:15;101391.63;;;20.21;63.04
60437;BME280;46289;51.992;4.498;2023-07-22T09:12:21;101388.25;;;20.43;63.59
60437;BME280;46289;51.992;4.498;2023-07-22T09:14:28;101380.72;;;20.60;61.77
60437;BME280;46289;51.992;4.498;2023-07-22T09:16:44;101378.41;;;20.43;62.24
60437;BME280;46289;51.992;4.498;2023-07-22T09:18:49;101384.16;;;20.50;61.46
60437;BME280;46289;51.992;4.498;2023-07-22T09:20:56;101373.13;;;20.67;59.52
60437;BME280;46289;51.992;4.498;2023-07-22T09:23:03;101368.91;;;20.76;60.28
60437;BME280;46289;51.992;4.498;2023-07-22T09:25:20;101376.38;;;20.47;61.15
60437;BME280;46289;51.992;4.498;2023-07-22T09:27:40;101370.03;;;20.36;61.38
60437;BME280;46289;51.992;4.498;2023-07-22T09:29:45;101374.41;;;20.25;61.49
60437;BME280;46289;51.992;4.498;2023-07-22T09:31:53;101378.63;;;20.16;61.81
60437;BME280;46289;51.992;4.498;2023-07-22T09:34:10;101385.97;;;19.76;62.87
60437;BME280;46289;51.992;4.498;2023-07-22T09:36:16;101384.00;;;19.65;62.84
60437;BME280;46289;51.992;4.498;2023-07-22T09:38:23;101379.84;;;19.61;62.05
60437;BME280;46289;51.992;4.498;2023-07-22T09:40:29;101382.94;;;19.42;62.38
60437;BME280;46289;51.992;4.498;2023-07-22T09:42:34;101385.94;;;19.63;62.14
60437;BME280;46289;51.992;4.498;2023-07-22T09:44:43;101381.38;;;19.78;61.11
60437;BME280;46289;51.992;4.498;2023-07-22T09:46:49;101386.38;;;19.69;60.90
60437;BME280;46289;51.992;4.498;2023-07-22T09:48:54;101387.34;;;19.68;60.23
60437;BME280;46289;51.992;4.498;2023-07-22T09:51:02;101398.19;;;19.65;61.26
60437;BME280;46289;51.992;4.498;2023-07-22T09:53:07;101403.91;;;19.21;65.10
60437;BME280;46289;51.992;4.498;2023-07-22T09:55:16;101394.97;;;18.55;70.77
60437;BME280;46289;51.992;4.498;2023-07-22T09:57:22;101396.19;;;18.08;74.61
60437;BME280;46289;51.992;4.498;2023-07-22T09:59:28;101398.53;;;17.55;77.62
60437;BME280;46289;51.992;4.498;2023-07-22T10:01:38;101401.22;;;17.69;77.68
60437;BME280;46289;51.992;4.498;2023-07-22T10:03:43;101405.44;;;17.88;76.88
60437;BME280;46289;51.992;4.498;2023-07-22T10:05:50;101406.06;;;17.48;78.75
60437;BME280;46289;51.992;4.498;2023-07-22T10:07:57;101405.94;;;17.50;78.78
60437;BME280;46289;51.992;4.498;2023-07-22T10:10:03;101407.28;;;17.71;78.47
60437;BME280;46289;51.992;4.498;2023-07-22T10:12:08;101413.66;;;17.69;78.37
60437;BME280;46289;51.992;4.498;2023-07-22T10:14:17;101411.38;;;17.77;77.33
60437;BME280;46289;51.992;4.498;2023-07-22T10:16:24;101410.06;;;17.70;78.34
60437;BME280;46289;51.992;4.498;2023-07-22T10:18:36;101408.91;;;17.74;78.22
60437;BME280;46289;51.992;4.498;2023-07-22T10:20:46;101406.88;;;17.93;78.47
60437;BME280;46289;51.992;4.498;2023-07-22T10:22:51;101422.91;;;17.92;77.24
60437;BME280;46289;51.992;4.498;2023-07-22T10:25:00;101418.59;;;17.75;78.24
60437;BME280;46289;51.992;4.498;2023-07-22T10:27:15;101418.81;;;17.86;79.74
60437;BME280;46289;51.992;4.498;2023-07-22T10:29:21;101420.56;;;17.57;79.46
60437;BME280;46289;51.992;4.498;2023-07-22T10:31:30;101419.25;;;17.64;80.17
60437;BME280;46289;51.992;4.498;2023-07-22T10:33:38;101423.44;;;17.68;80.29
60437;BME280;46289;51.992;4.498;2023-07-22T10:35:43;101421.00;;;17.80;80.50
60437;BME280;46289;51.992;4.498;2023-07-22T10:37:49;101405.34;;;18.04;80.10
60437;BME280;46289;51.992;4.498;2023-07-22T10:39:59;101406.25;;;18.58;77.85
60437;BME280;46289;51.992;4.498;2023-07-22T10:42:05;101414.19;;;18.73;74.31
60437;BME280;46289;51.992;4.498;2023-07-22T10:44:10;101410.72;;;19.12;73.82
60437;BME280;46289;51.992;4.498;2023-07-22T10:46:16;101408.09;;;19.63;70.60
60437;BME280;46289;51.992;4.498;2023-07-22T10:48:26;101397.22;;;20.54;66.98
60437;BME280;46289;51.992;4.498;2023-07-22T10:50:44;101403.34;;;20.68;65.96
60437;BME280;46289;51.992;4.498;2023-07-22T10:52:51;101398.44;;;20.25;64.27
60437;BME280;46289;51.992;4.498;2023-07-22T10:54:56;101399.44;;;20.60;64.21
60437;BME280;46289;51.992;4.498;2023-07-22T10:57:02;101402.00;;;20.12;63.87
60437;BME280;46289;51.992;4.498;2023-07-22T10:59:10;101408.47;;;20.34;63.00
60437;BME280;46289;51.992;4.498;2023-07-22T11:01:23;101404.66;;;20.25;62.42